sensor_id;sensor_type;location;lat;lon;timestamp;P1;durP1;ratioP1;P2;durP2;ratioP2
7683;SDS011;3884;48.616;12.872;2023-08-06T00:02:24;16.07;;;14.33;;
7683;SDS011;3884;48.616;12.872;2023-08-06T00:04:51;17.63;;;15.90;;
7683;SDS011;3884;48.616;12.872;2023-08-06T00:07:18;17.07;;;15.37;;
7683;SDS011;3884;48.616;12.872;2023-08-06T00:09:44;17.63;;;15.93;;
7683;SDS011;3884;48.616;12.872;2023-08-06T00:12:11;17.93;;;16.10;;
7683;SDS011;3884;48.616;12.872;2023-08-06T00:14:39;16.57;;;14.87;;
7683;SDS011;3884;48.616;12.872;2023-08-06T00:17:07;16.77;;;15.17;;
7683;SDS011;3884;48.616;12.872;2023-08-06T00:19:34;16.03;;;14.33;;
7683;SDS011;3884;48.616;12.872;2023-08-06T00:22:01;16.13;;;14.73;;
7683;SDS011;3884;48.616;12.872;2023-08-06T00:24:28;16.13;;;14.53;;
7683;SDS011;3884;48.616;12.872;2023-08-06T00:26:55;17.23;;;15.47;;
7683;SDS011;3884;48.616;12.872;2023-08-06T00:29:22;17.67;;;14.70;;
7683;SDS011;3884;48.616;12.872;2023-08-06T00:31:50;16.97;;;15.20;;
7683;SDS011;3884;48.616;12.872;2023-08-06T00:34:17;15.83;;;14.33;;
7683;SDS011;3884;48.616;12.872;2023-08-06T00:36:44;16.20;;;13.90;;
7683;SDS011;3884;48.616;12.872;2023-08-06T00:39:11;16.57;;;14.57;;
7683;SDS011;3884;48.616;12.872;2023-08-06T00:41:38;16.47;;;14.97;;
7683;SDS011;3884;48.616;12.872;2023-08-06T00:44:05;16.40;;;14.33;;
7683;SDS011;3884;48.616;12.872;2023-08-06T00:46:32;15.07;;;13.47;;
7683;SDS011;3884;48.616;12.872;2023-08-06T00:49:01;14.47;;;13.00;;
7683;SDS011;3884;48.616;12.872;2023-08-06T00:51:28;14.77;;;13.27;;
7683;SDS011;3884;48.616;12.872;2023-08-06T00:53:56;15.77;;;13.00;;
7683;SDS011;3884;48.616;12.872;2023-08-06T00:56:23;14.77;;;13.37;;
7683;SDS011;3884;48.616;12.872;2023-08-06T00:58:51;14.57;;;12.67;;
7683;SDS011;3884;48.616;12.872;2023-08-06T01:01:18;13.83;;;12.47;;
7683;SDS011;3884;48.616;12.872;2023-08-06T01:03:46;13.03;;;11.73;;
7683;SDS011;3884;48.616;12.872;2023-08-06T01:06:14;12.50;;;11.30;;
7683;SDS011;3884;48.616;12.872;2023-08-06T01:08:58;14.17;;;12.73;;
7683;SDS011;3884;48.616;12.872;2023-08-06T01:11:30;15.37;;;13.63;;
7683;SDS011;3884;48.616;12.872;2023-08-06T01:14:06;15.40;;;13.37;;
7683;SDS011;3884;48.616;12.872;2023-08-06T01:16:40;13.87;;;12.37;;
7683;SDS011;3884;48.616;12.872;2023-08-06T01:19:15;13.33;;;12.13;;
7683;SDS011;3884;48.616;12.872;2023-08-06T01:21:45;13.37;;;11.97;;
7683;SDS011;3884;48.616;12.872;2023-08-06T01:24:12;14.17;;;12.67;;
7683;SDS011;3884;48.616;12.872;2023-08-06T01:26:41;14.20;;;12.80;;
7683;SDS011;3884;48.616;12.872;2023-08-06T01:29:14;13.20;;;11.90;;
7683;SDS011;3884;48.616;12.872;2023-08-06T01:31:45;14.67;;;13.37;;
7683;SDS011;3884;48.616;12.872;2023-08-06T01:34:17;14.77;;;13.37;;
7683;SDS011;3884;48.616;12.872;2023-08-06T01:36:49;14.97;;;13.47;;
7683;SDS011;3884;48.616;12.872;2023-08-06T01:39:16;13.00;;;11.77;;
7683;SDS011;3884;48.616;12.872;2023-08-06T01:41:46;10.93;;;9.83;;
7683;SDS011;3884;48.616;12.872;2023-08-06T01:44:13;8.60;;;7.90;;
7683;SDS011;3884;48.616;12.872;2023-08-06T01:46:40;5.27;;;4.77;;
7683;SDS011;3884;48.616;12.872;2023-08-06T01:49:07;4.20;;;3.80;;
7683;SDS011;3884;48.616;12.872;2023-08-06T01:51:34;4.47;;;3.70;;
7683;SDS011;3884;48.616;12.872;2023-08-06T01:54:02;4.10;;;3.70;;
7683;SDS011;3884;48.616;12.872;2023-08-06T01:56:29;3.97;;;3.67;;
7683;SDS011;3884;48.616;12.872;2023-08-06T01:58:57;3.80;;;3.50;;
7683;SDS011;3884;48.616;12.872;2023-08-06T02:01:24;5.50;;;3.53;;
7683;SDS011;3884;48.616;12.872;2023-08-06T02:03:51;4.07;;;3.20;;
7683;SDS011;3884;48.616;12.872;2023-08-06T02:06:18;3.50;;;3.20;;
7683;SDS011;3884;48.616;12.872;2023-08-06T02:08:45;3.07;;;2.77;;
7683;SDS011;3884;48.616;12.872;2023-08-06T02:11:15;4.57;;;2.80;;
7683;SDS011;3884;48.616;12.872;2023-08-06T02:13:43;3.13;;;2.70;;
7683;SDS011;3884;48.616;12.872;2023-08-06T02:16:16;3.30;;;3.00;;
7683;SDS011;3884;48.616;12.872;2023-08-06T02:18:42;3.70;;;3.20;;
7683;SDS011;3884;48.616;12.872;2023-08-06T02:21:09;4.73;;;2.87;;
7683;SDS011;3884;48.616;12.872;2023-08-06T02:23:36;2.77;;;2.57;;
7683;SDS011;3884;48.616;12.872;2023-08-06T02:26:05;4.93;;;3.30;;
7683;SDS011;3884;48.616;12.872;2023-08-06T02:28:33;3.80;;;3.50;;
7683;SDS011;3884;48.616;12.872;2023-08-06T02:31:00;3.80;;;3.27;;
7683;SDS011;3884;48.616;12.872;2023-08-06T02:33:27;4.23;;;3.83;;
7683;SDS011;3884;48.616;12.872;2023-08-06T02:36:01;4.87;;;4.37;;
7683;SDS011;3884;48.616;12.872;2023-08-06T02:38:28;4.40;;;4.00;;
7683;SDS011;3884;48.616;12.872;2023-08-06T02:40:56;5.03;;;4.17;;
7683;SDS011;3884;48.616;12.872;2023-08-06T02:43:23;4.57;;;4.10;;
7683;SDS011;3884;48.616;12.872;2023-08-06T02:45:56;5.17;;;4.67;;
7683;SDS011;3884;48.616;12.872;2023-08-06T02:48:27;7.33;;;5.17;;
7683;SDS011;3884;48.616;12.872;2023-08-06T02:50:56;5.43;;;4.80;;
7683;SDS011;3884;48.616;12.872;2023-08-06T02:53:24;6.97;;;5.40;;
7683;SDS011;3884;48.616;12.872;2023-08-06T02:55:52;8.07;;;5.50;;
7683;SDS011;3884;48.616;12.872;2023-08-06T02:58:24;6.27;;;5.67;;
7683;SDS011;3884;48.616;12.872;2023-08-06T03:01:08;6.20;;;5.60;;
7683;SDS011;3884;48.616;12.872;2023-08-06T03:03:43;6.63;;;5.90;;
7683;SDS011;3884;48.616;12.872;2023-08-06T03:06:11;6.27;;;5.67;;
7683;SDS011;3884;48.616;12.872;2023-08-06T03:08:44;7.10;;;6.40;;
7683;SDS011;3884;48.616;12.872;2023-08-06T03:11:11;6.83;;;6.17;;
7683;SDS011;3884;48.616;12.872;2023-08-06T03:13:39;6.83;;;6.13;;
7683;SDS011;3884;48.616;12.872;2023-08-06T03:16:08;6.27;;;5.67;;
7683;SDS011;3884;48.616;12.872;2023-08-06T03:18:35;6.70;;;6.07;;
7683;SDS011;3884;48.616;12.872;2023-08-06T03:21:04;7.20;;;6.13;;
7683;SDS011;3884;48.616;12.872;2023-08-06T03:23:31;6.33;;;5.83;;
7683;SDS011;3884;48.616;12.872;2023-08-06T03:26:01;7.00;;;6.30;;
7683;SDS011;3884;48.616;12.872;2023-08-06T03:28:30;6.57;;;5.90;;
7683;SDS011;3884;48.616;12.872;2023-08-06T03:31:00;5.70;;;5.20;;
7683;SDS011;3884;48.616;12.872;2023-08-06T03:33:34;7.13;;;5.77;;
7683;SDS011;3884;48.616;12.872;2023-08-06T03:36:03;7.23;;;5.90;;
7683;SDS011;3884;48.616;12.872;2023-08-06T03:38:32;8.07;;;5.83;;
7683;SDS011;3884;48.616;12.872;2023-08-06T03:41:03;6.90;;;6.20;;
7683;SDS011;3884;48.616;12.872;2023-08-06T03:43:30;6.27;;;5.63;;
7683;SDS011;3884;48.616;12.872;2023-08-06T03:45:58;6.73;;;5.97;;
7683;SDS011;3884;48.616;12.872;2023-08-06T03:48:25;7.30;;;6.00;;
7683;SDS011;3884;48.616;12.872;2023-08-06T03:50:53;6.80;;;6.20;;
7683;SDS011;3884;48.616;12.872;2023-08-06T03:53:21;7.30;;;6.60;;
7683;SDS011;3884;48.616;12.872;2023-08-06T03:55:48;20.43;;;5.80;;
7683;SDS011;3884;48.616;12.872;2023-08-06T03:58:15;6.30;;;5.70;;
7683;SDS011;3884;48.616;12.872;2023-08-06T04:00:42;6.90;;;5.97;;
7683;SDS011;3884;48.616;12.872;2023-08-06T04:03:09;8.70;;;5.77;;
7683;SDS011;3884;48.616;12.872;2023-08-06T04:05:36;5.00;;;4.50;;
7683;SDS011;3884;48.616;12.872;2023-08-06T04:08:04;5.67;;;4.90;;
7683;SDS011;3884;48.616;12.872;2023-08-06T04:10:31;4.67;;;4.27;;
7683;SDS011;3884;48.616;12.872;2023-08-06T04:12:59;4.80;;;4.27;;
7683;SDS011;3884;48.616;12.872;2023-08-06T04:15:27;4.80;;;4.30;;
7683;SDS011;3884;48.616;12.872;2023-08-06T04:17:54;4.97;;;4.27;;
7683;SDS011;3884;48.616;12.872;2023-08-06T04:20:22;5.00;;;4.60;;
7683;SDS011;3884;48.616;12.872;2023-08-06T04:22:48;7.53;;;4.47;;
7683;SDS011;3884;48.616;12.872;2023-08-06T04:25:17;6.10;;;4.70;;
7683;SDS011;3884;48.616;12.872;2023-08-06T04:27:46;5.50;;;5.00;;
7683;SDS011;3884;48.616;12.872;2023-08-06T04:30:13;5.07;;;4.67;;
7683;SDS011;3884;48.616;12.872;2023-08-06T04:32:40;5.33;;;4.30;;
7683;SDS011;3884;48.616;12.872;2023-08-06T04:35:07;5.07;;;4.57;;
7683;SDS011;3884;48.616;12.872;2023-08-06T04:37:36;5.70;;;5.10;;
7683;SDS011;3884;48.616;12.872;2023-08-06T04:40:03;5.13;;;4.57;;
7683;SDS011;3884;48.616;12.872;2023-08-06T04:42:32;6.63;;;5.03;;
7683;SDS011;3884;48.616;12.872;2023-08-06T04:45:00;5.20;;;4.67;;
7683;SDS011;3884;48.616;12.872;2023-08-06T04:47:27;4.30;;;4.00;;
7683;SDS011;3884;48.616;12.872;2023-08-06T04:49:54;5.60;;;4.40;;
7683;SDS011;3884;48.616;12.872;2023-08-06T04:52:21;4.77;;;4.23;;
7683;SDS011;3884;48.616;12.872;2023-08-06T04:54:48;5.10;;;3.70;;
7683;SDS011;3884;48.616;12.872;2023-08-06T04:57:15;4.57;;;4.17;;
7683;SDS011;3884;48.616;12.872;2023-08-06T04:59:43;4.23;;;3.87;;
7683;SDS011;3884;48.616;12.872;2023-08-06T05:02:10;4.67;;;4.27;;
7683;SDS011;3884;48.616;12.872;2023-08-06T05:04:37;5.07;;;4.30;;
7683;SDS011;3884;48.616;12.872;2023-08-06T05:07:04;4.80;;;4.23;;
7683;SDS011;3884;48.616;12.872;2023-08-06T05:09:32;4.10;;;3.80;;
7683;SDS011;3884;48.616;12.872;2023-08-06T05:12:00;7.70;;;3.93;;
7683;SDS011;3884;48.616;12.872;2023-08-06T05:14:27;3.73;;;3.43;;
7683;SDS011;3884;48.616;12.872;2023-08-06T05:16:55;5.03;;;4.13;;
7683;SDS011;3884;48.616;12.872;2023-08-06T05:19:22;5.20;;;4.10;;
7683;SDS011;3884;48.616;12.872;2023-08-06T05:21:49;3.73;;;3.37;;
7683;SDS011;3884;48.616;12.872;2023-08-06T05:24:15;4.03;;;3.63;;
7683;SDS011;3884;48.616;12.872;2023-08-06T05:26:42;3.83;;;3.30;;
7683;SDS011;3884;48.616;12.872;2023-08-06T05:29:11;4.93;;;3.60;;
7683;SDS011;3884;48.616;12.872;2023-08-06T05:31:38;3.73;;;3.43;;
7683;SDS011;3884;48.616;12.872;2023-08-06T05:34:07;3.53;;;3.23;;
7683;SDS011;3884;48.616;12.872;2023-08-06T05:36:34;3.70;;;3.40;;
7683;SDS011;3884;48.616;12.872;2023-08-06T05:39:01;4.23;;;3.93;;
7683;SDS011;3884;48.616;12.872;2023-08-06T05:41:27;4.60;;;4.20;;
7683;SDS011;3884;48.616;12.872;2023-08-06T05:43:54;8.53;;;6.30;;
7683;SDS011;3884;48.616;12.872;2023-08-06T05:46:21;6.17;;;4.73;;
7683;SDS011;3884;48.616;12.872;2023-08-06T05:48:48;5.10;;;4.60;;
7683;SDS011;3884;48.616;12.872;2023-08-06T05:51:17;5.13;;;4.57;;
7683;SDS011;3884;48.616;12.872;2023-08-06T05:53:44;5.97;;;4.93;;
7683;SDS011;3884;48.616;12.872;2023-08-06T05:56:12;5.20;;;4.67;;
7683;SDS011;3884;48.616;12.872;2023-08-06T05:58:39;4.73;;;4.30;;
7683;SDS011;3884;48.616;12.872;2023-08-06T06:01:06;4.40;;;4.00;;
7683;SDS011;3884;48.616;12.872;2023-08-06T06:03:33;4.90;;;4.40;;
7683;SDS011;3884;48.616;12.872;2023-08-06T06:05:59;5.60;;;4.57;;
7683;SDS011;3884;48.616;12.872;2023-08-06T06:08:29;6.23;;;5.10;;
7683;SDS011;3884;48.616;12.872;2023-08-06T06:10:55;5.30;;;4.80;;
7683;SDS011;3884;48.616;12.872;2023-08-06T06:13:22;5.43;;;4.93;;
7683;SDS011;3884;48.616;12.872;2023-08-06T06:15:49;5.57;;;5.07;;
7683;SDS011;3884;48.616;12.872;2023-08-06T06:18:16;6.17;;;5.37;;
7683;SDS011;3884;48.616;12.872;2023-08-06T06:20:43;6.73;;;5.40;;
7683;SDS011;3884;48.616;12.872;2023-08-06T06:23:11;6.50;;;5.90;;
7683;SDS011;3884;48.616;12.872;2023-08-06T06:25:43;6.97;;;6.27;;
7683;SDS011;3884;48.616;12.872;2023-08-06T06:28:10;8.03;;;6.77;;
7683;SDS011;3884;48.616;12.872;2023-08-06T06:30:37;7.00;;;6.27;;
7683;SDS011;3884;48.616;12.872;2023-08-06T06:33:03;7.33;;;6.57;;
7683;SDS011;3884;48.616;12.872;2023-08-06T06:35:31;7.10;;;6.43;;
7683;SDS011;3884;48.616;12.872;2023-08-06T06:37:57;7.17;;;6.47;;
7683;SDS011;3884;48.616;12.872;2023-08-06T06:40:25;8.03;;;6.33;;
7683;SDS011;3884;48.616;12.872;2023-08-06T06:42:53;8.80;;;7.03;;
7683;SDS011;3884;48.616;12.872;2023-08-06T06:45:20;7.33;;;6.00;;
7683;SDS011;3884;48.616;12.872;2023-08-06T06:47:47;7.37;;;6.50;;
7683;SDS011;3884;48.616;12.872;2023-08-06T06:50:14;8.43;;;6.93;;
7683;SDS011;3884;48.616;12.872;2023-08-06T06:52:40;8.50;;;6.73;;
7683;SDS011;3884;48.616;12.872;2023-08-06T06:55:08;7.33;;;6.63;;
7683;SDS011;3884;48.616;12.872;2023-08-06T06:57:34;6.57;;;5.97;;
7683;SDS011;3884;48.616;12.872;2023-08-06T07:00:03;7.63;;;6.10;;
7683;SDS011;3884;48.616;12.872;2023-08-06T07:02:31;6.20;;;5.60;;
7683;SDS011;3884;48.616;12.872;2023-08-06T07:04:59;6.90;;;6.03;;
7683;SDS011;3884;48.616;12.872;2023-08-06T07:07:25;7.13;;;6.23;;
7683;SDS011;3884;48.616;12.872;2023-08-06T07:09:52;7.10;;;5.97;;
7683;SDS011;3884;48.616;12.872;2023-08-06T07:12:19;7.17;;;6.00;;
7683;SDS011;3884;48.616;12.872;2023-08-06T07:14:47;5.77;;;5.20;;
7683;SDS011;3884;48.616;12.872;2023-08-06T07:17:15;6.07;;;5.50;;
7683;SDS011;3884;48.616;12.872;2023-08-06T07:19:42;5.70;;;4.90;;
7683;SDS011;3884;48.616;12.872;2023-08-06T07:22:09;6.10;;;4.73;;
7683;SDS011;3884;48.616;12.872;2023-08-06T07:24:35;5.53;;;4.73;;
7683;SDS011;3884;48.616;12.872;2023-08-06T07:27:02;5.53;;;4.97;;
7683;SDS011;3884;48.616;12.872;2023-08-06T07:29:30;6.47;;;5.00;;
7683;SDS011;3884;48.616;12.872;2023-08-06T07:31:56;5.20;;;4.70;;
7683;SDS011;3884;48.616;12.872;2023-08-06T07:34:25;6.50;;;4.27;;
7683;SDS011;3884;48.616;12.872;2023-08-06T07:36:51;6.03;;;4.47;;
7683;SDS011;3884;48.616;12.872;2023-08-06T07:39:18;5.47;;;4.97;;
7683;SDS011;3884;48.616;12.872;2023-08-06T07:41:45;4.20;;;3.80;;
7683;SDS011;3884;48.616;12.872;2023-08-06T07:44:12;4.87;;;4.40;;
7683;SDS011;3884;48.616;12.872;2023-08-06T07:46:40;4.17;;;3.77;;
7683;SDS011;3884;48.616;12.872;2023-08-06T07:49:07;7.67;;;4.03;;
7683;SDS011;3884;48.616;12.872;2023-08-06T07:51:35;4.37;;;3.57;;
7683;SDS011;3884;48.616;12.872;2023-08-06T07:54:02;4.07;;;3.77;;
7683;SDS011;3884;48.616;12.872;2023-08-06T07:56:29;4.43;;;4.03;;
7683;SDS011;3884;48.616;12.872;2023-08-06T07:58:57;3.43;;;3.13;;
7683;SDS011;3884;48.616;12.872;2023-08-06T08:01:24;4.33;;;3.50;;
7683;SDS011;3884;48.616;12.872;2023-08-06T08:03:51;5.13;;;3.43;;
7683;SDS011;3884;48.616;12.872;2023-08-06T08:06:18;4.70;;;4.20;;
7683;SDS011;3884;48.616;12.872;2023-08-06T08:08:46;4.00;;;3.70;;
7683;SDS011;3884;48.616;12.872;2023-08-06T08:11:13;5.60;;;3.57;;
7683;SDS011;3884;48.616;12.872;2023-08-06T08:13:41;4.87;;;3.87;;
7683;SDS011;3884;48.616;12.872;2023-08-06T08:16:08;5.10;;;3.47;;
7683;SDS011;3884;48.616;12.872;2023-08-06T08:18:34;3.63;;;3.33;;
7683;SDS011;3884;48.616;12.872;2023-08-06T08:21:01;4.43;;;3.50;;
7683;SDS011;3884;48.616;12.872;2023-08-06T08:23:28;3.63;;;3.27;;
7683;SDS011;3884;48.616;12.872;2023-08-06T08:25:57;3.23;;;2.93;;
7683;SDS011;3884;48.616;12.872;2023-08-06T08:28:24;3.77;;;3.20;;
7683;SDS011;3884;48.616;12.872;2023-08-06T08:30:51;4.27;;;2.90;;
7683;SDS011;3884;48.616;12.872;2023-08-06T08:33:18;3.43;;;3.13;;
7683;SDS011;3884;48.616;12.872;2023-08-06T08:35:45;3.53;;;2.80;;
7683;SDS011;3884;48.616;12.872;2023-08-06T08:38:12;3.50;;;2.70;;
7683;SDS011;3884;48.616;12.872;2023-08-06T08:40:41;3.07;;;2.77;;
7683;SDS011;3884;48.616;12.872;2023-08-06T08:43:14;2.93;;;2.60;;
7683;SDS011;3884;48.616;12.872;2023-08-06T08:45:42;2.70;;;2.40;;
7683;SDS011;3884;48.616;12.872;2023-08-06T08:48:11;3.00;;;2.60;;
7683;SDS011;3884;48.616;12.872;2023-08-06T08:50:39;3.33;;;2.67;;
7683;SDS011;3884;48.616;12.872;2023-08-06T08:53:06;4.90;;;2.40;;
7683;SDS011;3884;48.616;12.872;2023-08-06T08:55:34;3.50;;;2.40;;
7683;SDS011;3884;48.616;12.872;2023-08-06T08:58:03;4.00;;;2.50;;
7683;SDS011;3884;48.616;12.872;2023-08-06T09:00:31;3.73;;;2.17;;
7683;SDS011;3884;48.616;12.872;2023-08-06T09:02:58;2.70;;;2.50;;
7683;SDS011;3884;48.616;12.872;2023-08-06T09:05:27;2.40;;;2.20;;
7683;SDS011;3884;48.616;12.872;2023-08-06T09:07:57;2.03;;;1.80;;
7683;SDS011;3884;48.616;12.872;2023-08-06T09:10:29;3.53;;;2.07;;
7683;SDS011;3884;48.616;12.872;2023-08-06T09:12:57;3.50;;;2.10;;
7683;SDS011;3884;48.616;12.872;2023-08-06T09:15:26;3.80;;;2.13;;
7683;SDS011;3884;48.616;12.872;2023-08-06T09:17:55;3.73;;;2.10;;
7683;SDS011;3884;48.616;12.872;2023-08-06T09:20:22;3.30;;;2.47;;
7683;SDS011;3884;48.616;12.872;2023-08-06T09:22:49;3.50;;;2.13;;
7683;SDS011;3884;48.616;12.872;2023-08-06T09:25:20;3.63;;;2.20;;
7683;SDS011;3884;48.616;12.872;2023-08-06T09:27:49;1.83;;;1.60;;
7683;SDS011;3884;48.616;12.872;2023-08-06T09:30:28;2.13;;;1.50;;
7683;SDS011;3884;48.616;12.872;2023-08-06T09:32:58;1.67;;;1.50;;
7683;SDS011;3884;48.616;12.872;2023-08-06T09:35:25;2.50;;;1.83;;
7683;SDS011;3884;48.616;12.872;2023-08-06T09:38:01;1.60;;;1.50;;
7683;SDS011;3884;48.616;12.872;2023-08-06T09:40:33;2.40;;;1.70;;
7683;SDS011;3884;48.616;12.872;2023-08-06T09:43:00;2.13;;;1.60;;
7683;SDS011;3884;48.616;12.872;2023-08-06T09:45:28;2.40;;;1.63;;
7683;SDS011;3884;48.616;12.872;2023-08-06T09:47:59;2.97;;;1.87;;
7683;SDS011;3884;48.616;12.872;2023-08-06T09:50:29;2.00;;;1.80;;
7683;SDS011;3884;48.616;12.872;2023-08-06T09:52:57;2.37;;;2.00;;
7683;SDS011;3884;48.616;12.872;2023-08-06T09:55:25;2.93;;;1.60;;
7683;SDS011;3884;48.616;12.872;2023-08-06T09:57:53;2.30;;;1.70;;
7683;SDS011;3884;48.616;12.872;2023-08-06T10:00:20;2.20;;;1.50;;
7683;SDS011;3884;48.616;12.872;2023-08-06T10:02:48;1.97;;;1.60;;
7683;SDS011;3884;48.616;12.872;2023-08-06T10:05:22;2.33;;;1.37;;
7683;SDS011;3884;48.616;12.872;2023-08-06T10:07:49;1.43;;;1.20;;
7683;SDS011;3884;48.616;12.872;2023-08-06T10:10:17;1.70;;;1.50;;
7683;SDS011;3884;48.616;12.872;2023-08-06T10:12:46;1.90;;;1.70;;
7683;SDS011;3884;48.616;12.872;2023-08-06T10:15:16;2.67;;;1.77;;
7683;SDS011;3884;48.616;12.872;2023-08-06T10:17:50;1.87;;;1.70;;
7683;SDS011;3884;48.616;12.872;2023-08-06T10:20:20;3.43;;;1.93;;
7683;SDS011;3884;48.616;12.872;2023-08-06T10:22:59;1.47;;;1.37;;
7683;SDS011;3884;48.616;12.872;2023-08-06T10:25:29;9.03;;;1.50;;
7683;SDS011;3884;48.616;12.872;2023-08-06T10:27:58;2.30;;;1.30;;
7683;SDS011;3884;48.616;12.872;2023-08-06T10:30:25;2.03;;;1.30;;
7683;SDS011;3884;48.616;12.872;2023-08-06T10:32:54;1.20;;;1.10;;
7683;SDS011;3884;48.616;12.872;2023-08-06T10:35:30;1.70;;;1.27;;
7683;SDS011;3884;48.616;12.872;2023-08-06T10:38:04;1.87;;;1.30;;
7683;SDS011;3884;48.616;12.872;2023-08-06T10:40:32;2.70;;;1.40;;
7683;SDS011;3884;48.616;12.872;2023-08-06T10:42:58;2.90;;;1.60;;
7683;SDS011;3884;48.616;12.872;2023-08-06T10:45:26;3.13;;;1.50;;
7683;SDS011;3884;48.616;12.872;2023-08-06T10:47:55;2.70;;;1.57;;
7683;SDS011;3884;48.616;12.872;2023-08-06T10:50:23;2.47;;;1.53;;
7683;SDS011;3884;48.616;12.872;2023-08-06T10:52:52;1.40;;;1.30;;
7683;SDS011;3884;48.616;12.872;2023-08-06T10:55:23;1.73;;;1.50;;
7683;SDS011;3884;48.616;12.872;2023-08-06T10:57:51;3.00;;;1.50;;
7683;SDS011;3884;48.616;12.872;2023-08-06T11:00:18;2.07;;;1.50;;
7683;SDS011;3884;48.616;12.872;2023-08-06T11:02:47;2.40;;;1.60;;
7683;SDS011;3884;48.616;12.872;2023-08-06T11:05:15;2.40;;;1.53;;
7683;SDS011;3884;48.616;12.872;2023-08-06T11:07:42;3.57;;;1.50;;
7683;SDS011;3884;48.616;12.872;2023-08-06T11:10:11;3.10;;;1.50;;
7683;SDS011;3884;48.616;12.872;2023-08-06T11:12:39;1.70;;;1.60;;
7683;SDS011;3884;48.616;12.872;2023-08-06T11:15:07;1.63;;;1.40;;
7683;SDS011;3884;48.616;12.872;2023-08-06T11:17:34;1.40;;;1.23;;
7683;SDS011;3884;48.616;12.872;2023-08-06T11:20:02;2.17;;;1.50;;
7683;SDS011;3884;48.616;12.872;2023-08-06T11:22:30;2.57;;;1.30;;
7683;SDS011;3884;48.616;12.872;2023-08-06T11:24:58;1.87;;;1.17;;
7683;SDS011;3884;48.616;12.872;2023-08-06T11:27:27;0.80;;;0.80;;
7683;SDS011;3884;48.616;12.872;2023-08-06T11:29:54;1.90;;;1.27;;
7683;SDS011;3884;48.616;12.872;2023-08-06T11:32:21;1.10;;;1.00;;
7683;SDS011;3884;48.616;12.872;2023-08-06T11:34:49;0.93;;;0.83;;
7683;SDS011;3884;48.616;12.872;2023-08-06T11:37:16;1.23;;;1.00;;
7683;SDS011;3884;48.616;12.872;2023-08-06T11:39:48;1.37;;;1.20;;
7683;SDS011;3884;48.616;12.872;2023-08-06T11:42:15;2.00;;;1.20;;
7683;SDS011;3884;48.616;12.872;2023-08-06T11:44:43;1.20;;;1.10;;
7683;SDS011;3884;48.616;12.872;2023-08-06T11:47:14;2.23;;;1.10;;
7683;SDS011;3884;48.616;12.872;2023-08-06T11:49:43;1.20;;;1.10;;
7683;SDS011;3884;48.616;12.872;2023-08-06T11:52:16;1.10;;;0.90;;
7683;SDS011;3884;48.616;12.872;2023-08-06T11:54:45;3.63;;;2.00;;
7683;SDS011;3884;48.616;12.872;2023-08-06T11:57:13;1.70;;;0.80;;
7683;SDS011;3884;48.616;12.872;2023-08-06T11:59:43;2.57;;;1.70;;
7683;SDS011;3884;48.616;12.872;2023-08-06T12:02:12;2.43;;;1.20;;
7683;SDS011;3884;48.616;12.872;2023-08-06T12:04:58;2.33;;;1.30;;
7683;SDS011;3884;48.616;12.872;2023-08-06T12:07:26;4.80;;;3.77;;
7683;SDS011;3884;48.616;12.872;2023-08-06T12:09:54;2.43;;;1.00;;
7683;SDS011;3884;48.616;12.872;2023-08-06T12:12:21;2.97;;;2.33;;
7683;SDS011;3884;48.616;12.872;2023-08-06T12:14:50;1.63;;;1.53;;
7683;SDS011;3884;48.616;12.872;2023-08-06T12:17:17;2.83;;;1.13;;
7683;SDS011;3884;48.616;12.872;2023-08-06T12:19:44;2.30;;;1.27;;
7683;SDS011;3884;48.616;12.872;2023-08-06T12:22:12;2.07;;;1.60;;
7683;SDS011;3884;48.616;12.872;2023-08-06T12:24:39;1.37;;;1.27;;
7683;SDS011;3884;48.616;12.872;2023-08-06T12:27:06;1.47;;;1.27;;
7683;SDS011;3884;48.616;12.872;2023-08-06T12:29:34;0.90;;;0.90;;
7683;SDS011;3884;48.616;12.872;2023-08-06T12:32:03;1.17;;;1.00;;
7683;SDS011;3884;48.616;12.872;2023-08-06T12:34:30;2.07;;;1.00;;
7683;SDS011;3884;48.616;12.872;2023-08-06T12:36:57;0.80;;;0.80;;
7683;SDS011;3884;48.616;12.872;2023-08-06T12:39:24;0.90;;;0.90;;
7683;SDS011;3884;48.616;12.872;2023-08-06T12:41:53;1.10;;;0.90;;
7683;SDS011;3884;48.616;12.872;2023-08-06T12:44:22;0.80;;;0.80;;
7683;SDS011;3884;48.616;12.872;2023-08-06T12:46:49;0.80;;;0.80;;
7683;SDS011;3884;48.616;12.872;2023-08-06T12:49:20;1.00;;;0.90;;
7683;SDS011;3884;48.616;12.872;2023-08-06T12:51:47;1.70;;;0.90;;
7683;SDS011;3884;48.616;12.872;2023-08-06T12:54:15;3.97;;;0.90;;
7683;SDS011;3884;48.616;12.872;2023-08-06T12:56:43;0.70;;;0.70;;
7683;SDS011;3884;48.616;12.872;2023-08-06T12:59:10;1.27;;;0.70;;
7683;SDS011;3884;48.616;12.872;2023-08-06T13:01:37;0.70;;;0.70;;
7683;SDS011;3884;48.616;12.872;2023-08-06T13:04:04;0.70;;;0.70;;
7683;SDS011;3884;48.616;12.872;2023-08-06T13:06:33;1.43;;;0.67;;
7683;SDS011;3884;48.616;12.872;2023-08-06T13:09:01;1.80;;;0.80;;
7683;SDS011;3884;48.616;12.872;2023-08-06T13:11:29;0.73;;;0.70;;
7683;SDS011;3884;48.616;12.872;2023-08-06T13:13:58;1.23;;;0.50;;
7683;SDS011;3884;48.616;12.872;2023-08-06T13:16:29;1.70;;;0.77;;
7683;SDS011;3884;48.616;12.872;2023-08-06T13:18:56;0.60;;;0.60;;
7683;SDS011;3884;48.616;12.872;2023-08-06T13:21:23;0.83;;;0.60;;
7683;SDS011;3884;48.616;12.872;2023-08-06T13:23:51;0.80;;;0.80;;
7683;SDS011;3884;48.616;12.872;2023-08-06T13:26:18;2.73;;;1.90;;
7683;SDS011;3884;48.616;12.872;2023-08-06T13:28:45;0.90;;;0.60;;
7683;SDS011;3884;48.616;12.872;2023-08-06T13:31:13;0.77;;;0.77;;
7683;SDS011;3884;48.616;12.872;2023-08-06T13:33:39;0.73;;;0.73;;
7683;SDS011;3884;48.616;12.872;2023-08-06T13:36:07;0.80;;;0.80;;
7683;SDS011;3884;48.616;12.872;2023-08-06T13:38:33;2.13;;;0.70;;
7683;SDS011;3884;48.616;12.872;2023-08-06T13:41:02;1.23;;;0.60;;
7683;SDS011;3884;48.616;12.872;2023-08-06T13:43:30;0.57;;;0.57;;
7683;SDS011;3884;48.616;12.872;2023-08-06T13:45:57;0.70;;;0.70;;
7683;SDS011;3884;48.616;12.872;2023-08-06T13:48:24;0.50;;;0.50;;
7683;SDS011;3884;48.616;12.872;2023-08-06T13:50:51;0.90;;;0.90;;
7683;SDS011;3884;48.616;12.872;2023-08-06T13:53:18;0.60;;;0.60;;
7683;SDS011;3884;48.616;12.872;2023-08-06T13:55:45;0.70;;;0.70;;
7683;SDS011;3884;48.616;12.872;2023-08-06T13:58:13;0.70;;;0.50;;
7683;SDS011;3884;48.616;12.872;2023-08-06T14:00:40;2.00;;;0.80;;
7683;SDS011;3884;48.616;12.872;2023-08-06T14:03:07;0.70;;;0.70;;
7683;SDS011;3884;48.616;12.872;2023-08-06T14:05:34;0.50;;;0.50;;
7683;SDS011;3884;48.616;12.872;2023-08-06T14:08:01;0.80;;;0.77;;
7683;SDS011;3884;48.616;12.872;2023-08-06T14:10:28;0.60;;;0.60;;
7683;SDS011;3884;48.616;12.872;2023-08-06T14:12:55;0.60;;;0.60;;
7683;SDS011;3884;48.616;12.872;2023-08-06T14:15:23;0.70;;;0.70;;
7683;SDS011;3884;48.616;12.872;2023-08-06T14:17:50;1.20;;;0.60;;
7683;SDS011;3884;48.616;12.872;2023-08-06T14:20:17;0.60;;;0.60;;
7683;SDS011;3884;48.616;12.872;2023-08-06T14:22:44;3.10;;;1.00;;
7683;SDS011;3884;48.616;12.872;2023-08-06T14:25:11;2.13;;;1.00;;
7683;SDS011;3884;48.616;12.872;2023-08-06T14:27:38;2.13;;;1.00;;
7683;SDS011;3884;48.616;12.872;2023-08-06T14:30:05;1.50;;;0.80;;
7683;SDS011;3884;48.616;12.872;2023-08-06T14:32:34;1.33;;;0.70;;
7683;SDS011;3884;48.616;12.872;2023-08-06T14:35:02;1.47;;;0.87;;
7683;SDS011;3884;48.616;12.872;2023-08-06T14:37:29;0.70;;;0.70;;
7683;SDS011;3884;48.616;12.872;2023-08-06T14:39:56;1.50;;;0.70;;
7683;SDS011;3884;48.616;12.872;2023-08-06T14:42:23;0.70;;;0.70;;
7683;SDS011;3884;48.616;12.872;2023-08-06T14:44:50;1.23;;;0.80;;
7683;SDS011;3884;48.616;12.872;2023-08-06T14:47:16;0.60;;;0.60;;
7683;SDS011;3884;48.616;12.872;2023-08-06T14:49:45;0.87;;;0.70;;
7683;SDS011;3884;48.616;12.872;2023-08-06T14:52:13;0.77;;;0.67;;
7683;SDS011;3884;48.616;12.872;2023-08-06T14:54:40;0.57;;;0.50;;
7683;SDS011;3884;48.616;12.872;2023-08-06T14:57:06;0.73;;;0.73;;
7683;SDS011;3884;48.616;12.872;2023-08-06T14:59:34;3.10;;;0.67;;
7683;SDS011;3884;48.616;12.872;2023-08-06T15:02:01;0.87;;;0.87;;
7683;SDS011;3884;48.616;12.872;2023-08-06T15:04:28;1.77;;;0.70;;